Terminal Aerodrome Forecast
Issued by NWS

Home | Current Version | Previous Version | Text Only | Print | Product List | Glossary Off
Versions: 1 2 3 4 5 6 7 8 9 10 11 12 13 14

000
FTUS43 KICT 080529
TAFSLN
TAF
KSLN 080529Z 0806/0906 28007KT P6SM SKC
     FM081100 25005KT P6SM -SN BKN080
     FM081300 26006KT P6SM BKN100
     FM081600 31007KT P6SM SCT080
     FM090000 31005KT P6SM SCT200=

USA.gov is the U.S. government's official web portal to all federal, state and local government web resources and services.